This is the latest recevied weather packets stored in our database for station/object KT1D-13. If no packets are shown the sender has not sent any weather packets the latest 10 day(s).
| Time | Temp. | Humidity | Pressure | Rain* | Wind** | Luminosity | Snow |
|---|---|---|---|---|---|---|---|
| 1777526121 | 7.22° C | 96% | 1010 hPa | 0 mm | - | 0 W/m² | - |
| 1777521322 | 7.22° C | 95% | 1010.8 hPa | 0 mm | - | 0 W/m² | - |
| 1777520722 | 7.22° C | 95% | 1010.8 hPa | 0 mm | - | 0 W/m² | - |
| 1777520123 | 7.22° C | 95% | 1010.9 hPa | 0 mm | - | 0 W/m² | - |
| 1777517124 | 7.22° C | 94% | 1011.8 hPa | 0 mm | - | 0 W/m² | - |
| 1777508716 | 7.78° C | 88% | 1012.4 hPa | 0 mm | - | 0 W/m² | - |
| 1777503918 | 8.89° C | 83% | 1012.9 hPa | 0 mm | - | 24 W/m² | - |
| 1777502718 | 8.89° C | 82% | 1012.7 hPa | 0 mm | - | 34 W/m² | - |
| 1777501518 | 9.44° C | 81% | 1012.8 hPa | 0 mm | - | 58 W/m² | - |
| 1777499138 | 10° C | 79% | 1013 hPa | 0 mm | - | 144 W/m² | - |
| 1777498519 | 10.56° C | 78% | 1013 hPa | 0 mm | - | 178 W/m² | - |
| 1777496719 | 11.11° C | 75% | 1012.9 hPa | 0 mm | - | 241 W/m² | - |
| 1777496120 | 11.11° C | 75% | 1012.9 hPa | 0 mm | - | 343 W/m² | - |
| 1777495521 | 11.11° C | 75% | 1012.9 hPa | 0 mm | - | 344 W/m² | - |
| 1777490741 | 12.78° C | 71% | 1013.7 hPa | 0 mm | - | 356 W/m² | - |
| 1777488328 | 13.89° C | 69% | 1014.4 hPa | 0 mm | - | 709 W/m² | - |
| 1777486522 | 13.33° C | 70% | 1014.5 hPa | 0 mm | - | 695 W/m² | - |
| 1777482353 | 11.67° C | 73% | 1015.2 hPa | 0 mm | - | 784 W/m² | - |
| 1777476318 | 9.44° C | 81% | 1016.1 hPa | 0 mm | - | 387 W/m² | - |
| 1777475119 | 8.89° C | 82% | 1016.5 hPa | 0 mm | - | 337 W/m² | - |
| 1777468520 | 7.78° C | 88% | 1017.6 hPa | 0 mm | - | 146 W/m² | - |
| 1777463722 | 7.78° C | 84% | 1017.8 hPa | 0 mm | - | 121 W/m² | - |
| 1777462542 | 7.78° C | 84% | 1017.8 hPa | 0 mm | - | 98 W/m² | - |
| 1777461322 | 7.22° C | 85% | 1017.4 hPa | 0 mm | - | 86 W/m² | - |
| 1777458323 | 7.22° C | 84% | 1017.4 hPa | 0 mm | - | 20 W/m² | - |
* Rain latest hour (hover to see other rain measurements)
** Current wind speed in m/s (hover to see current wind gust speed)